sensor_id;sensor_type;location;lat;lon;timestamp;P1;durP1;ratioP1;P2;durP2;ratioP2
75984;SDS011;65033;44.660;37.758;2023-02-18T00:00:50;7.60;;;5.75;;
75984;SDS011;65033;44.660;37.758;2023-02-18T00:01:55;6.80;;;5.57;;
75984;SDS011;65033;44.660;37.758;2023-02-18T00:02:58;6.43;;;5.38;;
75984;SDS011;65033;44.660;37.758;2023-02-18T00:04:01;7.88;;;5.30;;
75984;SDS011;65033;44.660;37.758;2023-02-18T00:05:04;8.30;;;5.85;;
75984;SDS011;65033;44.660;37.758;2023-02-18T00:06:11;7.55;;;5.68;;
75984;SDS011;65033;44.660;37.758;2023-02-18T00:07:15;6.78;;;5.25;;
75984;SDS011;65033;44.660;37.758;2023-02-18T00:08:19;6.40;;;5.70;;
75984;SDS011;65033;44.660;37.758;2023-02-18T00:09:24;6.30;;;5.22;;
75984;SDS011;65033;44.660;37.758;2023-02-18T00:10:28;6.40;;;5.45;;
75984;SDS011;65033;44.660;37.758;2023-02-18T00:11:32;7.38;;;5.63;;
75984;SDS011;65033;44.660;37.758;2023-02-18T00:12:36;7.20;;;5.65;;
75984;SDS011;65033;44.660;37.758;2023-02-18T00:13:39;6.15;;;5.30;;
75984;SDS011;65033;44.660;37.758;2023-02-18T00:14:43;6.30;;;5.63;;
75984;SDS011;65033;44.660;37.758;2023-02-18T00:15:46;6.18;;;5.30;;
75984;SDS011;65033;44.660;37.758;2023-02-18T00:16:49;6.88;;;5.45;;
75984;SDS011;65033;44.660;37.758;2023-02-18T00:17:53;6.75;;;5.75;;
75984;SDS011;65033;44.660;37.758;2023-02-18T00:18:56;7.47;;;6.30;;
75984;SDS011;65033;44.660;37.758;2023-02-18T00:20:00;7.13;;;5.55;;
75984;SDS011;65033;44.660;37.758;2023-02-18T00:21:04;6.75;;;5.40;;
75984;SDS011;65033;44.660;37.758;2023-02-18T00:22:08;7.70;;;5.60;;
75984;SDS011;65033;44.660;37.758;2023-02-18T00:23:12;6.63;;;5.57;;
75984;SDS011;65033;44.660;37.758;2023-02-18T00:24:15;7.05;;;5.85;;
75984;SDS011;65033;44.660;37.758;2023-02-18T00:25:20;6.78;;;5.72;;
75984;SDS011;65033;44.660;37.758;2023-02-18T00:26:23;6.65;;;5.60;;
75984;SDS011;65033;44.660;37.758;2023-02-18T00:27:26;6.47;;;5.45;;
75984;SDS011;65033;44.660;37.758;2023-02-18T00:28:30;6.28;;;5.57;;
75984;SDS011;65033;44.660;37.758;2023-02-18T00:29:34;6.85;;;5.75;;
75984;SDS011;65033;44.660;37.758;2023-02-18T00:30:39;6.30;;;5.60;;
75984;SDS011;65033;44.660;37.758;2023-02-18T00:31:43;5.82;;;5.20;;
75984;SDS011;65033;44.660;37.758;2023-02-18T00:32:46;7.45;;;5.70;;
75984;SDS011;65033;44.660;37.758;2023-02-18T00:33:50;6.82;;;5.70;;
75984;SDS011;65033;44.660;37.758;2023-02-18T00:34:54;7.88;;;5.93;;
75984;SDS011;65033;44.660;37.758;2023-02-18T00:36:00;6.53;;;5.63;;
75984;SDS011;65033;44.660;37.758;2023-02-18T00:37:04;6.72;;;5.82;;
75984;SDS011;65033;44.660;37.758;2023-02-18T00:38:07;6.68;;;5.47;;
75984;SDS011;65033;44.660;37.758;2023-02-18T00:39:10;7.32;;;5.68;;
75984;SDS011;65033;44.660;37.758;2023-02-18T00:40:15;7.00;;;6.00;;
75984;SDS011;65033;44.660;37.758;2023-02-18T00:41:19;7.40;;;6.00;;
75984;SDS011;65033;44.660;37.758;2023-02-18T00:42:24;6.60;;;5.75;;
75984;SDS011;65033;44.660;37.758;2023-02-18T00:43:27;7.82;;;5.68;;
75984;SDS011;65033;44.660;37.758;2023-02-18T00:44:31;7.28;;;6.07;;
75984;SDS011;65033;44.660;37.758;2023-02-18T00:45:34;8.25;;;6.57;;
75984;SDS011;65033;44.660;37.758;2023-02-18T00:46:38;7.53;;;6.22;;
75984;SDS011;65033;44.660;37.758;2023-02-18T00:47:41;6.03;;;5.50;;
75984;SDS011;65033;44.660;37.758;2023-02-18T00:48:45;9.27;;;6.13;;
75984;SDS011;65033;44.660;37.758;2023-02-18T00:49:48;7.30;;;5.63;;
75984;SDS011;65033;44.660;37.758;2023-02-18T00:50:51;6.95;;;5.65;;
75984;SDS011;65033;44.660;37.758;2023-02-18T00:51:57;7.47;;;6.15;;
75984;SDS011;65033;44.660;37.758;2023-02-18T00:53:00;7.13;;;6.00;;
75984;SDS011;65033;44.660;37.758;2023-02-18T00:54:04;8.07;;;6.15;;
75984;SDS011;65033;44.660;37.758;2023-02-18T00:55:08;7.18;;;5.95;;
75984;SDS011;65033;44.660;37.758;2023-02-18T00:56:11;8.25;;;6.22;;
75984;SDS011;65033;44.660;37.758;2023-02-18T00:57:18;8.30;;;6.07;;
75984;SDS011;65033;44.660;37.758;2023-02-18T00:58:21;7.40;;;6.05;;
75984;SDS011;65033;44.660;37.758;2023-02-18T00:59:24;7.00;;;6.30;;
75984;SDS011;65033;44.660;37.758;2023-02-18T01:00:27;6.40;;;5.63;;
75984;SDS011;65033;44.660;37.758;2023-02-18T01:01:31;8.98;;;5.95;;
75984;SDS011;65033;44.660;37.758;2023-02-18T01:02:35;7.50;;;6.15;;
75984;SDS011;65033;44.660;37.758;2023-02-18T01:03:40;6.72;;;6.03;;
75984;SDS011;65033;44.660;37.758;2023-02-18T01:04:43;8.40;;;6.15;;
75984;SDS011;65033;44.660;37.758;2023-02-18T01:05:47;7.03;;;5.97;;
75984;SDS011;65033;44.660;37.758;2023-02-18T01:06:54;6.40;;;5.57;;
75984;SDS011;65033;44.660;37.758;2023-02-18T01:07:57;6.65;;;5.95;;
75984;SDS011;65033;44.660;37.758;2023-02-18T01:09:00;6.80;;;5.93;;
75984;SDS011;65033;44.660;37.758;2023-02-18T01:10:04;7.68;;;5.93;;
75984;SDS011;65033;44.660;37.758;2023-02-18T01:11:09;6.57;;;5.88;;
75984;SDS011;65033;44.660;37.758;2023-02-18T01:12:14;6.82;;;6.07;;
75984;SDS011;65033;44.660;37.758;2023-02-18T01:13:19;6.65;;;5.50;;
75984;SDS011;65033;44.660;37.758;2023-02-18T01:14:22;7.13;;;5.90;;
75984;SDS011;65033;44.660;37.758;2023-02-18T01:15:25;7.80;;;5.95;;
75984;SDS011;65033;44.660;37.758;2023-02-18T01:16:29;7.20;;;6.10;;
75984;SDS011;65033;44.660;37.758;2023-02-18T01:17:32;7.97;;;6.03;;
75984;SDS011;65033;44.660;37.758;2023-02-18T01:18:39;8.20;;;6.38;;
75984;SDS011;65033;44.660;37.758;2023-02-18T01:19:43;8.07;;;6.45;;
75984;SDS011;65033;44.660;37.758;2023-02-18T01:20:46;7.03;;;6.07;;
75984;SDS011;65033;44.660;37.758;2023-02-18T01:21:50;8.63;;;6.68;;
75984;SDS011;65033;44.660;37.758;2023-02-18T01:22:53;7.50;;;6.38;;
75984;SDS011;65033;44.660;37.758;2023-02-18T01:23:56;6.97;;;5.90;;
75984;SDS011;65033;44.660;37.758;2023-02-18T01:25:00;7.82;;;6.25;;
75984;SDS011;65033;44.660;37.758;2023-02-18T01:26:04;6.80;;;6.07;;
75984;SDS011;65033;44.660;37.758;2023-02-18T01:27:08;7.93;;;6.53;;
75984;SDS011;65033;44.660;37.758;2023-02-18T01:28:12;7.70;;;6.03;;
75984;SDS011;65033;44.660;37.758;2023-02-18T01:29:17;7.35;;;6.40;;
75984;SDS011;65033;44.660;37.758;2023-02-18T01:30:20;7.70;;;6.57;;
75984;SDS011;65033;44.660;37.758;2023-02-18T01:31:24;7.50;;;6.75;;
75984;SDS011;65033;44.660;37.758;2023-02-18T01:32:27;6.85;;;6.15;;
75984;SDS011;65033;44.660;37.758;2023-02-18T01:33:30;7.38;;;6.32;;
75984;SDS011;65033;44.660;37.758;2023-02-18T01:34:35;7.30;;;6.22;;
75984;SDS011;65033;44.660;37.758;2023-02-18T01:35:38;8.10;;;6.63;;
75984;SDS011;65033;44.660;37.758;2023-02-18T01:36:42;6.97;;;6.15;;
75984;SDS011;65033;44.660;37.758;2023-02-18T01:37:46;7.10;;;6.25;;
75984;SDS011;65033;44.660;37.758;2023-02-18T01:38:50;8.05;;;7.03;;
75984;SDS011;65033;44.660;37.758;2023-02-18T01:39:54;7.80;;;6.38;;
75984;SDS011;65033;44.660;37.758;2023-02-18T01:40:58;7.03;;;6.32;;
75984;SDS011;65033;44.660;37.758;2023-02-18T01:42:02;7.25;;;6.28;;
75984;SDS011;65033;44.660;37.758;2023-02-18T01:43:08;6.97;;;6.28;;
75984;SDS011;65033;44.660;37.758;2023-02-18T01:44:14;7.72;;;5.82;;
75984;SDS011;65033;44.660;37.758;2023-02-18T01:45:41;7.53;;;6.07;;
75984;SDS011;65033;44.660;37.758;2023-02-18T01:47:02;6.93;;;6.07;;
75984;SDS011;65033;44.660;37.758;2023-02-18T01:48:06;7.60;;;6.47;;
75984;SDS011;65033;44.660;37.758;2023-02-18T01:49:15;7.72;;;6.25;;
75984;SDS011;65033;44.660;37.758;2023-02-18T01:50:21;7.68;;;6.35;;
75984;SDS011;65033;44.660;37.758;2023-02-18T01:51:25;7.57;;;6.20;;
75984;SDS011;65033;44.660;37.758;2023-02-18T01:52:31;7.00;;;6.28;;
75984;SDS011;65033;44.660;37.758;2023-02-18T01:53:36;7.35;;;6.50;;
75984;SDS011;65033;44.660;37.758;2023-02-18T01:54:43;7.57;;;6.35;;
75984;SDS011;65033;44.660;37.758;2023-02-18T01:55:48;7.45;;;6.55;;
75984;SDS011;65033;44.660;37.758;2023-02-18T01:56:53;8.68;;;6.65;;
75984;SDS011;65033;44.660;37.758;2023-02-18T01:57:58;8.73;;;6.80;;
75984;SDS011;65033;44.660;37.758;2023-02-18T01:59:05;8.07;;;6.60;;
75984;SDS011;65033;44.660;37.758;2023-02-18T02:00:16;9.02;;;6.57;;
75984;SDS011;65033;44.660;37.758;2023-02-18T02:01:24;7.78;;;6.68;;
75984;SDS011;65033;44.660;37.758;2023-02-18T02:02:28;8.20;;;6.70;;
75984;SDS011;65033;44.660;37.758;2023-02-18T02:03:36;7.50;;;6.55;;
75984;SDS011;65033;44.660;37.758;2023-02-18T02:04:39;7.35;;;6.20;;
75984;SDS011;65033;44.660;37.758;2023-02-18T02:05:43;7.18;;;6.28;;
75984;SDS011;65033;44.660;37.758;2023-02-18T02:06:49;7.90;;;6.40;;
75984;SDS011;65033;44.660;37.758;2023-02-18T02:07:53;8.27;;;7.03;;
75984;SDS011;65033;44.660;37.758;2023-02-18T02:08:57;7.90;;;7.00;;
75984;SDS011;65033;44.660;37.758;2023-02-18T02:10:04;7.40;;;6.65;;
75984;SDS011;65033;44.660;37.758;2023-02-18T02:11:11;8.63;;;7.00;;
75984;SDS011;65033;44.660;37.758;2023-02-18T02:12:39;8.23;;;6.95;;
75984;SDS011;65033;44.660;37.758;2023-02-18T02:13:58;8.57;;;6.78;;
75984;SDS011;65033;44.660;37.758;2023-02-18T02:15:22;7.90;;;6.53;;
75984;SDS011;65033;44.660;37.758;2023-02-18T02:16:38;8.43;;;6.63;;
75984;SDS011;65033;44.660;37.758;2023-02-18T02:17:50;7.70;;;6.80;;
75984;SDS011;65033;44.660;37.758;2023-02-18T02:19:06;7.45;;;6.55;;
75984;SDS011;65033;44.660;37.758;2023-02-18T02:20:41;8.30;;;7.40;;
75984;SDS011;65033;44.660;37.758;2023-02-18T02:24:01;8.07;;;6.57;;
75984;SDS011;65033;44.660;37.758;2023-02-18T02:25:30;7.53;;;6.78;;
75984;SDS011;65033;44.660;37.758;2023-02-18T02:26:55;8.25;;;7.00;;
75984;SDS011;65033;44.660;37.758;2023-02-18T02:29:40;7.55;;;6.43;;
75984;SDS011;65033;44.660;37.758;2023-02-18T02:31:18;7.47;;;6.47;;
75984;SDS011;65033;44.660;37.758;2023-02-18T02:32:48;8.55;;;6.32;;
75984;SDS011;65033;44.660;37.758;2023-02-18T02:34:28;8.00;;;7.18;;
75984;SDS011;65033;44.660;37.758;2023-02-18T02:35:43;8.10;;;7.00;;
75984;SDS011;65033;44.660;37.758;2023-02-18T02:36:49;9.18;;;6.90;;
75984;SDS011;65033;44.660;37.758;2023-02-18T02:37:58;8.07;;;6.70;;
75984;SDS011;65033;44.660;37.758;2023-02-18T02:39:07;7.45;;;6.75;;
75984;SDS011;65033;44.660;37.758;2023-02-18T02:40:18;8.27;;;6.82;;
75984;SDS011;65033;44.660;37.758;2023-02-18T02:41:34;7.88;;;6.82;;
75984;SDS011;65033;44.660;37.758;2023-02-18T02:42:50;7.97;;;6.60;;
75984;SDS011;65033;44.660;37.758;2023-02-18T02:44:08;7.90;;;6.60;;
75984;SDS011;65033;44.660;37.758;2023-02-18T02:46:27;7.88;;;6.22;;
75984;SDS011;65033;44.660;37.758;2023-02-18T02:47:37;7.95;;;6.63;;
75984;SDS011;65033;44.660;37.758;2023-02-18T02:48:48;9.25;;;7.47;;
75984;SDS011;65033;44.660;37.758;2023-02-18T02:50:02;7.80;;;7.00;;
75984;SDS011;65033;44.660;37.758;2023-02-18T02:51:08;7.43;;;6.53;;
75984;SDS011;65033;44.660;37.758;2023-02-18T02:52:16;7.88;;;6.85;;
75984;SDS011;65033;44.660;37.758;2023-02-18T02:53:25;9.05;;;6.80;;
75984;SDS011;65033;44.660;37.758;2023-02-18T02:54:31;7.53;;;6.53;;
75984;SDS011;65033;44.660;37.758;2023-02-18T02:55:35;8.52;;;6.65;;
75984;SDS011;65033;44.660;37.758;2023-02-18T02:56:38;7.60;;;6.85;;
75984;SDS011;65033;44.660;37.758;2023-02-18T02:57:44;8.38;;;7.25;;
75984;SDS011;65033;44.660;37.758;2023-02-18T02:59:06;8.35;;;6.72;;
75984;SDS011;65033;44.660;37.758;2023-02-18T03:00:16;8.93;;;7.25;;
75984;SDS011;65033;44.660;37.758;2023-02-18T03:01:24;8.23;;;7.07;;
75984;SDS011;65033;44.660;37.758;2023-02-18T03:02:40;8.68;;;6.85;;
75984;SDS011;65033;44.660;37.758;2023-02-18T03:04:10;9.10;;;7.57;;
75984;SDS011;65033;44.660;37.758;2023-02-18T03:05:27;7.97;;;7.03;;
75984;SDS011;65033;44.660;37.758;2023-02-18T03:06:42;8.15;;;7.00;;
75984;SDS011;65033;44.660;37.758;2023-02-18T03:09:27;8.88;;;7.18;;
75984;SDS011;65033;44.660;37.758;2023-02-18T03:10:41;8.57;;;7.70;;
75984;SDS011;65033;44.660;37.758;2023-02-18T03:11:51;8.65;;;6.95;;
75984;SDS011;65033;44.660;37.758;2023-02-18T03:13:10;8.93;;;7.07;;
75984;SDS011;65033;44.660;37.758;2023-02-18T03:14:21;9.00;;;7.22;;
75984;SDS011;65033;44.660;37.758;2023-02-18T03:15:38;9.93;;;7.70;;
75984;SDS011;65033;44.660;37.758;2023-02-18T03:17:54;8.45;;;6.80;;
75984;SDS011;65033;44.660;37.758;2023-02-18T03:19:05;7.60;;;6.70;;
75984;SDS011;65033;44.660;37.758;2023-02-18T03:20:14;9.57;;;6.53;;
75984;SDS011;65033;44.660;37.758;2023-02-18T03:21:24;8.63;;;6.72;;
75984;SDS011;65033;44.660;37.758;2023-02-18T03:22:31;7.60;;;6.65;;
75984;SDS011;65033;44.660;37.758;2023-02-18T03:23:41;8.93;;;7.30;;
75984;SDS011;65033;44.660;37.758;2023-02-18T03:24:52;8.38;;;7.22;;
75984;SDS011;65033;44.660;37.758;2023-02-18T03:25:57;8.23;;;7.07;;
75984;SDS011;65033;44.660;37.758;2023-02-18T03:27:04;8.27;;;7.32;;
75984;SDS011;65033;44.660;37.758;2023-02-18T03:28:12;7.97;;;7.00;;
75984;SDS011;65033;44.660;37.758;2023-02-18T03:29:20;7.57;;;6.78;;
75984;SDS011;65033;44.660;37.758;2023-02-18T03:30:25;8.85;;;7.30;;
75984;SDS011;65033;44.660;37.758;2023-02-18T03:31:33;8.55;;;7.05;;
75984;SDS011;65033;44.660;37.758;2023-02-18T03:32:39;8.52;;;7.38;;
75984;SDS011;65033;44.660;37.758;2023-02-18T03:33:44;8.65;;;7.43;;
75984;SDS011;65033;44.660;37.758;2023-02-18T03:34:52;8.27;;;7.10;;
75984;SDS011;65033;44.660;37.758;2023-02-18T03:35:59;8.85;;;7.53;;
75984;SDS011;65033;44.660;37.758;2023-02-18T03:37:04;8.88;;;7.47;;
75984;SDS011;65033;44.660;37.758;2023-02-18T03:38:11;7.95;;;7.15;;
75984;SDS011;65033;44.660;37.758;2023-02-18T03:39:19;8.98;;;7.38;;
75984;SDS011;65033;44.660;37.758;2023-02-18T03:40:25;7.53;;;6.75;;
75984;SDS011;65033;44.660;37.758;2023-02-18T03:41:29;7.68;;;6.80;;
75984;SDS011;65033;44.660;37.758;2023-02-18T03:42:32;9.40;;;7.35;;
75984;SDS011;65033;44.660;37.758;2023-02-18T03:43:36;8.68;;;7.40;;
75984;SDS011;65033;44.660;37.758;2023-02-18T03:44:41;8.13;;;7.20;;
75984;SDS011;65033;44.660;37.758;2023-02-18T03:45:45;9.07;;;7.30;;
75984;SDS011;65033;44.660;37.758;2023-02-18T03:46:49;8.05;;;7.07;;
75984;SDS011;65033;44.660;37.758;2023-02-18T03:47:53;8.25;;;7.30;;
75984;SDS011;65033;44.660;37.758;2023-02-18T03:48:58;8.93;;;7.00;;
75984;SDS011;65033;44.660;37.758;2023-02-18T03:50:01;8.93;;;7.60;;
75984;SDS011;65033;44.660;37.758;2023-02-18T03:51:05;8.20;;;6.72;;
75984;SDS011;65033;44.660;37.758;2023-02-18T03:52:10;7.80;;;6.60;;
75984;SDS011;65033;44.660;37.758;2023-02-18T03:53:13;8.55;;;7.43;;
75984;SDS011;65033;44.660;37.758;2023-02-18T03:54:17;8.60;;;7.20;;
75984;SDS011;65033;44.660;37.758;2023-02-18T03:55:21;7.88;;;6.82;;
75984;SDS011;65033;44.660;37.758;2023-02-18T03:56:25;8.25;;;7.20;;
75984;SDS011;65033;44.660;37.758;2023-02-18T03:57:28;9.30;;;7.60;;
75984;SDS011;65033;44.660;37.758;2023-02-18T03:58:31;9.48;;;7.63;;
75984;SDS011;65033;44.660;37.758;2023-02-18T03:59:35;9.00;;;7.35;;
75984;SDS011;65033;44.660;37.758;2023-02-18T04:00:38;8.52;;;7.28;;
75984;SDS011;65033;44.660;37.758;2023-02-18T04:01:42;8.80;;;7.28;;
75984;SDS011;65033;44.660;37.758;2023-02-18T04:02:45;8.32;;;7.38;;
75984;SDS011;65033;44.660;37.758;2023-02-18T04:03:49;8.38;;;6.95;;
75984;SDS011;65033;44.660;37.758;2023-02-18T04:04:52;7.93;;;7.00;;
75984;SDS011;65033;44.660;37.758;2023-02-18T04:05:56;8.13;;;7.32;;
75984;SDS011;65033;44.660;37.758;2023-02-18T04:06:59;8.60;;;7.13;;
75984;SDS011;65033;44.660;37.758;2023-02-18T04:08:04;8.15;;;6.95;;
75984;SDS011;65033;44.660;37.758;2023-02-18T04:09:07;9.65;;;7.35;;
75984;SDS011;65033;44.660;37.758;2023-02-18T04:10:10;9.45;;;7.50;;
75984;SDS011;65033;44.660;37.758;2023-02-18T04:11:14;7.85;;;7.05;;
75984;SDS011;65033;44.660;37.758;2023-02-18T04:12:17;8.30;;;7.22;;
75984;SDS011;65033;44.660;37.758;2023-02-18T04:13:20;9.32;;;7.47;;
75984;SDS011;65033;44.660;37.758;2023-02-18T04:14:27;8.07;;;7.28;;
75984;SDS011;65033;44.660;37.758;2023-02-18T04:15:33;8.38;;;7.47;;
75984;SDS011;65033;44.660;37.758;2023-02-18T04:16:37;8.20;;;7.10;;
75984;SDS011;65033;44.660;37.758;2023-02-18T04:17:40;9.07;;;7.60;;
75984;SDS011;65033;44.660;37.758;2023-02-18T04:18:43;8.73;;;7.22;;
75984;SDS011;65033;44.660;37.758;2023-02-18T04:19:46;8.95;;;7.60;;
75984;SDS011;65033;44.660;37.758;2023-02-18T04:20:50;8.25;;;7.35;;
75984;SDS011;65033;44.660;37.758;2023-02-18T04:21:53;9.50;;;7.60;;
75984;SDS011;65033;44.660;37.758;2023-02-18T04:22:56;20.15;;;16.75;;
75984;SDS011;65033;44.660;37.758;2023-02-18T04:24:01;25.20;;;22.52;;
75984;SDS011;65033;44.660;37.758;2023-02-18T04:25:05;24.52;;;21.55;;
75984;SDS011;65033;44.660;37.758;2023-02-18T04:26:09;27.88;;;22.48;;
75984;SDS011;65033;44.660;37.758;2023-02-18T04:27:12;20.98;;;17.83;;
75984;SDS011;65033;44.660;37.758;2023-02-18T04:28:15;16.67;;;14.40;;
75984;SDS011;65033;44.660;37.758;2023-02-18T04:29:19;14.55;;;12.48;;
75984;SDS011;65033;44.660;37.758;2023-02-18T04:30:22;14.93;;;13.32;;
75984;SDS011;65033;44.660;37.758;2023-02-18T04:31:26;14.43;;;12.88;;
75984;SDS011;65033;44.660;37.758;2023-02-18T04:32:29;16.13;;;13.15;;
75984;SDS011;65033;44.660;37.758;2023-02-18T04:33:32;14.98;;;13.23;;
75984;SDS011;65033;44.660;37.758;2023-02-18T04:34:36;14.85;;;13.25;;
75984;SDS011;65033;44.660;37.758;2023-02-18T04:35:39;14.60;;;12.90;;
75984;SDS011;65033;44.660;37.758;2023-02-18T04:36:43;15.55;;;13.88;;
75984;SDS011;65033;44.660;37.758;2023-02-18T04:37:46;16.45;;;13.82;;
75984;SDS011;65033;44.660;37.758;2023-02-18T04:38:49;15.55;;;13.68;;
75984;SDS011;65033;44.660;37.758;2023-02-18T04:39:54;17.10;;;13.57;;
75984;SDS011;65033;44.660;37.758;2023-02-18T04:40:57;14.63;;;12.82;;
75984;SDS011;65033;44.660;37.758;2023-02-18T04:42:01;16.38;;;13.88;;
75984;SDS011;65033;44.660;37.758;2023-02-18T04:43:10;15.63;;;13.65;;
75984;SDS011;65033;44.660;37.758;2023-02-18T04:44:13;15.55;;;13.35;;
75984;SDS011;65033;44.660;37.758;2023-02-18T04:45:16;17.15;;;14.73;;
75984;SDS011;65033;44.660;37.758;2023-02-18T04:46:20;16.73;;;14.80;;
75984;SDS011;65033;44.660;37.758;2023-02-18T04:47:24;16.83;;;15.02;;
75984;SDS011;65033;44.660;37.758;2023-02-18T04:48:27;17.63;;;14.85;;
75984;SDS011;65033;44.660;37.758;2023-02-18T04:49:30;16.15;;;14.15;;
75984;SDS011;65033;44.660;37.758;2023-02-18T04:50:34;17.02;;;15.20;;
75984;SDS011;65033;44.660;37.758;2023-02-18T04:51:37;18.00;;;14.93;;
75984;SDS011;65033;44.660;37.758;2023-02-18T04:52:40;17.52;;;14.38;;
75984;SDS011;65033;44.660;37.758;2023-02-18T04:53:43;16.63;;;14.68;;
75984;SDS011;65033;44.660;37.758;2023-02-18T04:54:47;17.33;;;15.15;;
75984;SDS011;65033;44.660;37.758;2023-02-18T04:55:52;18.70;;;15.65;;
75984;SDS011;65033;44.660;37.758;2023-02-18T04:56:56;17.13;;;15.30;;
75984;SDS011;65033;44.660;37.758;2023-02-18T04:57:59;17.17;;;15.23;;
75984;SDS011;65033;44.660;37.758;2023-02-18T04:59:02;18.85;;;15.20;;
75984;SDS011;65033;44.660;37.758;2023-02-18T05:00:07;18.40;;;14.73;;
75984;SDS011;65033;44.660;37.758;2023-02-18T05:01:14;19.60;;;16.05;;
75984;SDS011;65033;44.660;37.758;2023-02-18T05:02:17;18.70;;;15.43;;
75984;SDS011;65033;44.660;37.758;2023-02-18T05:03:21;17.80;;;15.07;;
75984;SDS011;65033;44.660;37.758;2023-02-18T05:04:24;17.48;;;15.13;;
75984;SDS011;65033;44.660;37.758;2023-02-18T05:05:27;16.88;;;14.88;;
75984;SDS011;65033;44.660;37.758;2023-02-18T05:06:30;17.98;;;15.15;;
75984;SDS011;65033;44.660;37.758;2023-02-18T05:07:34;16.80;;;14.95;;
75984;SDS011;65033;44.660;37.758;2023-02-18T05:08:37;18.20;;;15.30;;
75984;SDS011;65033;44.660;37.758;2023-02-18T05:09:40;18.13;;;15.73;;
75984;SDS011;65033;44.660;37.758;2023-02-18T05:10:43;19.75;;;15.60;;
75984;SDS011;65033;44.660;37.758;2023-02-18T05:11:48;16.98;;;15.15;;
75984;SDS011;65033;44.660;37.758;2023-02-18T05:12:52;17.45;;;15.60;;
75984;SDS011;65033;44.660;37.758;2023-02-18T05:13:55;17.80;;;15.05;;
75984;SDS011;65033;44.660;37.758;2023-02-18T05:14:58;20.13;;;15.60;;
75984;SDS011;65033;44.660;37.758;2023-02-18T05:16:01;16.60;;;14.75;;
75984;SDS011;65033;44.660;37.758;2023-02-18T05:17:05;20.02;;;16.17;;
75984;SDS011;65033;44.660;37.758;2023-02-18T05:18:08;16.40;;;14.55;;
75984;SDS011;65033;44.660;37.758;2023-02-18T05:19:12;17.40;;;15.50;;
75984;SDS011;65033;44.660;37.758;2023-02-18T05:20:16;20.38;;;15.93;;
75984;SDS011;65033;44.660;37.758;2023-02-18T05:21:20;17.83;;;15.15;;
75984;SDS011;65033;44.660;37.758;2023-02-18T05:22:23;16.90;;;14.13;;
75984;SDS011;65033;44.660;37.758;2023-02-18T05:23:26;16.77;;;14.20;;
75984;SDS011;65033;44.660;37.758;2023-02-18T05:24:30;16.98;;;14.43;;
75984;SDS011;65033;44.660;37.758;2023-02-18T05:25:33;17.25;;;14.98;;
75984;SDS011;65033;44.660;37.758;2023-02-18T05:26:36;18.75;;;14.82;;
75984;SDS011;65033;44.660;37.758;2023-02-18T05:27:41;16.42;;;14.57;;
75984;SDS011;65033;44.660;37.758;2023-02-18T05:28:44;17.77;;;14.70;;
75984;SDS011;65033;44.660;37.758;2023-02-18T05:29:47;16.60;;;14.65;;
75984;SDS011;65033;44.660;37.758;2023-02-18T05:30:51;16.83;;;14.60;;
75984;SDS011;65033;44.660;37.758;2023-02-18T05:31:54;18.95;;;15.35;;
75984;SDS011;65033;44.660;37.758;2023-02-18T05:32:57;16.25;;;14.10;;
75984;SDS011;65033;44.660;37.758;2023-02-18T05:34:01;17.73;;;14.65;;
75984;SDS011;65033;44.660;37.758;2023-02-18T05:35:04;17.45;;;15.10;;
75984;SDS011;65033;44.660;37.758;2023-02-18T05:36:08;16.58;;;13.95;;
75984;SDS011;65033;44.660;37.758;2023-02-18T05:37:11;17.20;;;14.93;;
75984;SDS011;65033;44.660;37.758;2023-02-18T05:38:15;16.70;;;14.15;;
75984;SDS011;65033;44.660;37.758;2023-02-18T05:39:18;16.67;;;13.18;;
75984;SDS011;65033;44.660;37.758;2023-02-18T05:40:22;17.58;;;14.95;;
75984;SDS011;65033;44.660;37.758;2023-02-18T05:41:25;15.55;;;13.82;;
75984;SDS011;65033;44.660;37.758;2023-02-18T05:42:28;17.88;;;14.43;;
75984;SDS011;65033;44.660;37.758;2023-02-18T05:43:33;16.35;;;13.27;;
75984;SDS011;65033;44.660;37.758;2023-02-18T05:44:56;15.20;;;13.32;;
75984;SDS011;65033;44.660;37.758;2023-02-18T05:45:59;15.25;;;13.20;;
75984;SDS011;65033;44.660;37.758;2023-02-18T05:47:03;16.38;;;14.23;;
75984;SDS011;65033;44.660;37.758;2023-02-18T05:48:09;17.08;;;14.35;;
75984;SDS011;65033;44.660;37.758;2023-02-18T05:49:12;15.05;;;13.55;;
75984;SDS011;65033;44.660;37.758;2023-02-18T05:50:15;15.70;;;13.88;;
75984;SDS011;65033;44.660;37.758;2023-02-18T05:51:19;16.05;;;13.43;;
75984;SDS011;65033;44.660;37.758;2023-02-18T05:52:22;17.92;;;13.63;;
75984;SDS011;65033;44.660;37.758;2023-02-18T05:53:25;15.65;;;13.90;;
75984;SDS011;65033;44.660;37.758;2023-02-18T05:54:29;23.58;;;18.90;;
75984;SDS011;65033;44.660;37.758;2023-02-18T05:55:32;22.75;;;19.85;;
75984;SDS011;65033;44.660;37.758;2023-02-18T05:56:40;21.73;;;19.42;;
75984;SDS011;65033;44.660;37.758;2023-02-18T05:57:43;22.58;;;18.83;;
75984;SDS011;65033;44.660;37.758;2023-02-18T05:58:48;21.42;;;16.65;;
75984;SDS011;65033;44.660;37.758;2023-02-18T05:59:51;18.65;;;15.85;;
75984;SDS011;65033;44.660;37.758;2023-02-18T06:00:55;19.55;;;15.70;;
75984;SDS011;65033;44.660;37.758;2023-02-18T06:01:59;18.25;;;16.25;;
75984;SDS011;65033;44.660;37.758;2023-02-18T06:03:03;17.77;;;15.52;;
75984;SDS011;65033;44.660;37.758;2023-02-18T06:04:06;22.67;;;16.48;;
75984;SDS011;65033;44.660;37.758;2023-02-18T06:05:09;19.20;;;16.00;;
75984;SDS011;65033;44.660;37.758;2023-02-18T06:06:13;19.85;;;16.85;;
75984;SDS011;65033;44.660;37.758;2023-02-18T06:07:16;19.67;;;16.20;;
75984;SDS011;65033;44.660;37.758;2023-02-18T06:08:21;18.45;;;15.98;;
75984;SDS011;65033;44.660;37.758;2023-02-18T06:09:25;19.20;;;16.48;;
75984;SDS011;65033;44.660;37.758;2023-02-18T06:10:28;20.50;;;17.38;;
75984;SDS011;65033;44.660;37.758;2023-02-18T06:11:31;21.67;;;18.30;;
75984;SDS011;65033;44.660;37.758;2023-02-18T06:12:35;29.13;;;24.88;;
75984;SDS011;65033;44.660;37.758;2023-02-18T06:13:39;30.75;;;25.02;;
75984;SDS011;65033;44.660;37.758;2023-02-18T06:14:43;29.75;;;24.60;;
75984;SDS011;65033;44.660;37.758;2023-02-18T06:15:49;28.67;;;23.65;;
75984;SDS011;65033;44.660;37.758;2023-02-18T06:16:52;27.08;;;23.30;;
75984;SDS011;65033;44.660;37.758;2023-02-18T06:17:55;27.73;;;22.55;;
75984;SDS011;65033;44.660;37.758;2023-02-18T06:18:58;24.58;;;21.73;;
75984;SDS011;65033;44.660;37.758;2023-02-18T06:20:02;22.88;;;20.48;;
75984;SDS011;65033;44.660;37.758;2023-02-18T06:21:05;23.67;;;19.98;;
75984;SDS011;65033;44.660;37.758;2023-02-18T06:22:09;20.80;;;18.52;;
75984;SDS011;65033;44.660;37.758;2023-02-18T06:23:12;22.50;;;20.10;;
75984;SDS011;65033;44.660;37.758;2023-02-18T06:24:15;22.17;;;19.67;;
75984;SDS011;65033;44.660;37.758;2023-02-18T06:25:19;20.85;;;18.10;;
75984;SDS011;65033;44.660;37.758;2023-02-18T06:26:22;21.88;;;18.00;;
75984;SDS011;65033;44.660;37.758;2023-02-18T06:27:25;22.02;;;18.88;;
75984;SDS011;65033;44.660;37.758;2023-02-18T06:28:30;20.92;;;18.67;;
75984;SDS011;65033;44.660;37.758;2023-02-18T06:29:33;22.85;;;20.05;;
75984;SDS011;65033;44.660;37.758;2023-02-18T06:30:39;21.27;;;18.42;;
75984;SDS011;65033;44.660;37.758;2023-02-18T06:31:42;21.58;;;17.77;;
75984;SDS011;65033;44.660;37.758;2023-02-18T06:32:46;20.90;;;18.02;;
75984;SDS011;65033;44.660;37.758;2023-02-18T06:33:49;20.73;;;18.10;;
75984;SDS011;65033;44.660;37.758;2023-02-18T06:34:52;20.38;;;18.17;;